createdAt,value
2017-12-30T11:02:34.734Z,7.50
2017-12-30T11:17:34.655Z,7.43
2017-12-30T11:32:34.672Z,6.37
2017-12-30T11:47:34.625Z,6.47
2017-12-30T12:02:34.410Z,7.03
2017-12-30T12:17:34.178Z,7.63
2017-12-30T12:32:34.138Z,6.37
2017-12-30T12:47:34.144Z,6.60
2017-12-30T13:02:36.512Z,8.13
2017-12-30T13:17:34.372Z,7.10
2017-12-30T13:32:34.323Z,7.70
2017-12-30T13:47:34.539Z,6.20
2017-12-30T14:02:36.930Z,6.70
2017-12-30T14:17:37.049Z,6.87
2017-12-30T14:32:33.942Z,7.93
2017-12-30T14:47:33.915Z,7.50
2017-12-30T15:02:34.498Z,14.50
2017-12-30T15:17:34.984Z,22.83
2017-12-30T15:32:36.451Z,18.87
2017-12-30T15:47:36.547Z,26.20
2017-12-30T16:02:36.536Z,21.90
2017-12-30T16:17:34.422Z,18.60
2017-12-30T16:32:35.394Z,21.30
2017-12-30T16:47:40.208Z,20.17
2017-12-30T17:02:34.783Z,22.70
2017-12-30T17:17:34.756Z,24.60
2017-12-30T17:32:34.671Z,19.60
2017-12-30T17:47:34.528Z,18.17
2017-12-30T18:02:35.031Z,16.73
2017-12-30T18:17:35.056Z,18.53
2017-12-30T18:32:34.161Z,21.07
2017-12-30T18:47:36.883Z,20.67
2017-12-30T19:02:38.268Z,15.07
2017-12-30T19:17:36.230Z,15.57
2017-12-30T19:32:35.679Z,18.50
2017-12-30T19:47:34.753Z,18.43
2017-12-30T20:02:34.447Z,17.50
2017-12-30T20:17:36.484Z,32.10
2017-12-30T20:32:35.175Z,23.60
2017-12-30T20:47:35.152Z,26.17
2017-12-30T21:02:34.527Z,34.53
2017-12-30T21:17:36.640Z,27.57
2017-12-30T21:32:36.107Z,23.80
2017-12-30T21:47:34.595Z,21.30
2017-12-30T22:02:34.556Z,18.57
2017-12-30T22:17:34.705Z,23.40
2017-12-30T22:32:34.655Z,36.47
2017-12-30T22:47:34.728Z,22.30
2017-12-30T23:02:37.273Z,15.17
2017-12-30T23:17:34.895Z,11.50
2017-12-30T23:32:34.803Z,13.20
2017-12-30T23:47:35.372Z,17.23
